sensor_id;sensor_type;location;lat;lon;timestamp;temperature;humidity
19888;DHT22;10106;51.332;12.336;2023-07-29T00:00:37;19.20;99.90
19888;DHT22;10106;51.332;12.336;2023-07-29T00:03:02;19.10;99.90
19888;DHT22;10106;51.332;12.336;2023-07-29T00:05:28;19.10;99.90
19888;DHT22;10106;51.332;12.336;2023-07-29T00:07:54;19.10;99.90
19888;DHT22;10106;51.332;12.336;2023-07-29T00:10:19;19.10;99.90
19888;DHT22;10106;51.332;12.336;2023-07-29T00:12:45;19.10;99.90
19888;DHT22;10106;51.332;12.336;2023-07-29T00:15:13;19.00;99.90
19888;DHT22;10106;51.332;12.336;2023-07-29T00:17:38;19.00;99.90
19888;DHT22;10106;51.332;12.336;2023-07-29T00:20:05;19.00;99.90
19888;DHT22;10106;51.332;12.336;2023-07-29T00:22:31;19.00;99.90
19888;DHT22;10106;51.332;12.336;2023-07-29T00:24:56;19.00;99.90
19888;DHT22;10106;51.332;12.336;2023-07-29T00:27:25;18.90;99.90
19888;DHT22;10106;51.332;12.336;2023-07-29T00:29:51;18.90;99.90
19888;DHT22;10106;51.332;12.336;2023-07-29T00:32:17;18.90;99.90
19888;DHT22;10106;51.332;12.336;2023-07-29T00:34:44;18.80;99.90
19888;DHT22;10106;51.332;12.336;2023-07-29T00:37:10;18.80;99.90
19888;DHT22;10106;51.332;12.336;2023-07-29T00:39:36;18.80;99.90
19888;DHT22;10106;51.332;12.336;2023-07-29T00:42:02;18.80;99.90
19888;DHT22;10106;51.332;12.336;2023-07-29T00:44:28;18.80;99.90
19888;DHT22;10106;51.332;12.336;2023-07-29T00:46:54;18.80;99.90
19888;DHT22;10106;51.332;12.336;2023-07-29T00:49:20;18.80;99.90
19888;DHT22;10106;51.332;12.336;2023-07-29T00:51:46;18.90;99.90
19888;DHT22;10106;51.332;12.336;2023-07-29T00:54:12;18.90;99.90
19888;DHT22;10106;51.332;12.336;2023-07-29T00:56:38;18.90;99.90
19888;DHT22;10106;51.332;12.336;2023-07-29T00:59:04;18.90;99.90
19888;DHT22;10106;51.332;12.336;2023-07-29T01:01:30;18.90;99.90
19888;DHT22;10106;51.332;12.336;2023-07-29T01:03:56;18.90;99.90
19888;DHT22;10106;51.332;12.336;2023-07-29T01:06:29;18.90;99.90
19888;DHT22;10106;51.332;12.336;2023-07-29T01:11:46;18.90;99.90
19888;DHT22;10106;51.332;12.336;2023-07-29T01:16:41;18.90;99.90
19888;DHT22;10106;51.332;12.336;2023-07-29T01:19:08;18.90;99.90
19888;DHT22;10106;51.332;12.336;2023-07-29T01:21:40;18.90;99.90
19888;DHT22;10106;51.332;12.336;2023-07-29T01:24:06;18.90;99.90
19888;DHT22;10106;51.332;12.336;2023-07-29T01:26:32;18.80;99.90
19888;DHT22;10106;51.332;12.336;2023-07-29T01:28:57;18.90;99.90
19888;DHT22;10106;51.332;12.336;2023-07-29T01:31:33;18.90;99.90
19888;DHT22;10106;51.332;12.336;2023-07-29T01:34:22;18.90;99.90
19888;DHT22;10106;51.332;12.336;2023-07-29T01:36:45;18.90;99.90
19888;DHT22;10106;51.332;12.336;2023-07-29T01:39:12;19.00;99.90
19888;DHT22;10106;51.332;12.336;2023-07-29T01:41:37;19.00;99.90
19888;DHT22;10106;51.332;12.336;2023-07-29T01:44:04;19.00;99.90
19888;DHT22;10106;51.332;12.336;2023-07-29T01:46:31;19.10;99.90
19888;DHT22;10106;51.332;12.336;2023-07-29T01:48:57;19.10;99.90
19888;DHT22;10106;51.332;12.336;2023-07-29T01:51:22;19.10;99.90
19888;DHT22;10106;51.332;12.336;2023-07-29T01:53:48;19.20;99.90
19888;DHT22;10106;51.332;12.336;2023-07-29T01:56:14;19.20;99.90
19888;DHT22;10106;51.332;12.336;2023-07-29T01:58:39;19.20;99.90
19888;DHT22;10106;51.332;12.336;2023-07-29T02:01:05;19.10;99.90
19888;DHT22;10106;51.332;12.336;2023-07-29T02:03:30;19.10;99.90
19888;DHT22;10106;51.332;12.336;2023-07-29T02:05:56;19.10;99.90
19888;DHT22;10106;51.332;12.336;2023-07-29T02:08:22;19.10;99.90
19888;DHT22;10106;51.332;12.336;2023-07-29T02:10:47;19.10;99.90
19888;DHT22;10106;51.332;12.336;2023-07-29T02:13:14;19.10;99.90
19888;DHT22;10106;51.332;12.336;2023-07-29T02:15:40;19.10;99.90
19888;DHT22;10106;51.332;12.336;2023-07-29T02:18:06;19.10;99.90
19888;DHT22;10106;51.332;12.336;2023-07-29T02:20:32;19.10;99.90
19888;DHT22;10106;51.332;12.336;2023-07-29T02:22:58;19.10;99.90
19888;DHT22;10106;51.332;12.336;2023-07-29T02:25:24;19.00;99.90
19888;DHT22;10106;51.332;12.336;2023-07-29T02:27:49;19.10;99.90
19888;DHT22;10106;51.332;12.336;2023-07-29T02:30:15;19.00;99.90
19888;DHT22;10106;51.332;12.336;2023-07-29T02:32:41;19.00;99.90
19888;DHT22;10106;51.332;12.336;2023-07-29T02:35:06;19.00;99.90
19888;DHT22;10106;51.332;12.336;2023-07-29T02:37:32;18.90;99.90
19888;DHT22;10106;51.332;12.336;2023-07-29T02:39:58;18.90;99.90
19888;DHT22;10106;51.332;12.336;2023-07-29T02:42:23;18.80;99.90
19888;DHT22;10106;51.332;12.336;2023-07-29T02:44:49;18.80;99.90
19888;DHT22;10106;51.332;12.336;2023-07-29T02:47:14;18.80;99.90
19888;DHT22;10106;51.332;12.336;2023-07-29T02:49:40;18.70;99.90
19888;DHT22;10106;51.332;12.336;2023-07-29T02:52:06;18.70;99.90
19888;DHT22;10106;51.332;12.336;2023-07-29T02:54:31;18.70;99.90
19888;DHT22;10106;51.332;12.336;2023-07-29T02:56:57;18.60;99.90
19888;DHT22;10106;51.332;12.336;2023-07-29T02:59:23;18.60;99.90
19888;DHT22;10106;51.332;12.336;2023-07-29T03:01:49;18.50;99.90
19888;DHT22;10106;51.332;12.336;2023-07-29T03:04:14;18.50;99.90
19888;DHT22;10106;51.332;12.336;2023-07-29T03:06:40;18.50;99.90
19888;DHT22;10106;51.332;12.336;2023-07-29T03:09:05;18.40;99.90
19888;DHT22;10106;51.332;12.336;2023-07-29T03:11:31;18.40;99.90
19888;DHT22;10106;51.332;12.336;2023-07-29T03:13:57;18.40;99.90
19888;DHT22;10106;51.332;12.336;2023-07-29T03:16:22;18.40;99.90
19888;DHT22;10106;51.332;12.336;2023-07-29T03:18:48;18.30;99.90
19888;DHT22;10106;51.332;12.336;2023-07-29T03:21:14;18.30;99.90
19888;DHT22;10106;51.332;12.336;2023-07-29T03:23:39;18.30;99.90
19888;DHT22;10106;51.332;12.336;2023-07-29T03:26:05;18.30;99.90
19888;DHT22;10106;51.332;12.336;2023-07-29T03:28:40;18.30;99.90
19888;DHT22;10106;51.332;12.336;2023-07-29T03:31:06;18.30;99.90
19888;DHT22;10106;51.332;12.336;2023-07-29T03:33:32;18.30;99.90
19888;DHT22;10106;51.332;12.336;2023-07-29T03:36:00;18.30;99.90
19888;DHT22;10106;51.332;12.336;2023-07-29T03:38:26;18.30;99.90
19888;DHT22;10106;51.332;12.336;2023-07-29T03:40:51;18.20;99.90
19888;DHT22;10106;51.332;12.336;2023-07-29T03:43:18;18.20;99.90
19888;DHT22;10106;51.332;12.336;2023-07-29T03:45:44;18.20;99.90
19888;DHT22;10106;51.332;12.336;2023-07-29T03:48:09;18.20;99.90
19888;DHT22;10106;51.332;12.336;2023-07-29T03:50:35;18.20;99.90
19888;DHT22;10106;51.332;12.336;2023-07-29T03:53:01;18.20;99.90
19888;DHT22;10106;51.332;12.336;2023-07-29T03:55:27;18.20;99.90
19888;DHT22;10106;51.332;12.336;2023-07-29T03:57:56;18.20;99.90
19888;DHT22;10106;51.332;12.336;2023-07-29T04:00:21;18.20;99.90
19888;DHT22;10106;51.332;12.336;2023-07-29T04:02:47;18.20;99.90
19888;DHT22;10106;51.332;12.336;2023-07-29T04:05:12;18.20;99.90
19888;DHT22;10106;51.332;12.336;2023-07-29T04:07:38;18.30;99.90
19888;DHT22;10106;51.332;12.336;2023-07-29T04:10:05;18.40;99.90
19888;DHT22;10106;51.332;12.336;2023-07-29T04:12:31;18.60;99.90
19888;DHT22;10106;51.332;12.336;2023-07-29T04:14:56;18.70;99.90
19888;DHT22;10106;51.332;12.336;2023-07-29T04:17:22;18.70;99.90
19888;DHT22;10106;51.332;12.336;2023-07-29T04:19:47;18.90;99.90
19888;DHT22;10106;51.332;12.336;2023-07-29T04:22:14;19.20;99.90
19888;DHT22;10106;51.332;12.336;2023-07-29T04:24:39;19.30;99.90
19888;DHT22;10106;51.332;12.336;2023-07-29T04:27:05;19.30;99.90
19888;DHT22;10106;51.332;12.336;2023-07-29T04:29:31;19.30;99.90
19888;DHT22;10106;51.332;12.336;2023-07-29T04:31:56;19.40;99.90
19888;DHT22;10106;51.332;12.336;2023-07-29T04:34:22;19.70;99.90
19888;DHT22;10106;51.332;12.336;2023-07-29T04:36:51;20.80;99.90
19888;DHT22;10106;51.332;12.336;2023-07-29T04:39:16;21.90;99.90
19888;DHT22;10106;51.332;12.336;2023-07-29T04:41:42;23.10;99.90
19888;DHT22;10106;51.332;12.336;2023-07-29T04:44:08;24.00;99.90
19888;DHT22;10106;51.332;12.336;2023-07-29T04:46:35;24.80;99.90
19888;DHT22;10106;51.332;12.336;2023-07-29T04:49:01;25.60;99.90
19888;DHT22;10106;51.332;12.336;2023-07-29T04:51:30;26.00;99.90
19888;DHT22;10106;51.332;12.336;2023-07-29T04:53:59;26.70;99.90
19888;DHT22;10106;51.332;12.336;2023-07-29T04:58:56;28.10;99.90
19888;DHT22;10106;51.332;12.336;2023-07-29T05:06:33;29.40;99.90
19888;DHT22;10106;51.332;12.336;2023-07-29T05:08:59;29.50;99.90
19888;DHT22;10106;51.332;12.336;2023-07-29T05:11:37;29.80;99.90
19888;DHT22;10106;51.332;12.336;2023-07-29T05:14:02;29.40;99.90
19888;DHT22;10106;51.332;12.336;2023-07-29T05:16:30;29.30;99.90
19888;DHT22;10106;51.332;12.336;2023-07-29T05:18:55;28.90;99.90
19888;DHT22;10106;51.332;12.336;2023-07-29T05:21:21;28.50;99.90
19888;DHT22;10106;51.332;12.336;2023-07-29T05:23:46;28.40;99.90
19888;DHT22;10106;51.332;12.336;2023-07-29T05:26:12;28.00;99.90
19888;DHT22;10106;51.332;12.336;2023-07-29T05:28:37;27.20;99.90
19888;DHT22;10106;51.332;12.336;2023-07-29T05:31:03;26.80;99.90
19888;DHT22;10106;51.332;12.336;2023-07-29T05:33:29;26.50;99.90
19888;DHT22;10106;51.332;12.336;2023-07-29T05:35:54;26.40;99.90
19888;DHT22;10106;51.332;12.336;2023-07-29T05:38:20;26.20;99.90
19888;DHT22;10106;51.332;12.336;2023-07-29T05:40:47;26.30;99.90
19888;DHT22;10106;51.332;12.336;2023-07-29T05:43:13;26.50;99.90
19888;DHT22;10106;51.332;12.336;2023-07-29T05:45:40;26.90;99.90
19888;DHT22;10106;51.332;12.336;2023-07-29T05:48:05;27.10;99.90
19888;DHT22;10106;51.332;12.336;2023-07-29T05:50:31;27.20;99.90
19888;DHT22;10106;51.332;12.336;2023-07-29T05:52:56;27.20;99.90
19888;DHT22;10106;51.332;12.336;2023-07-29T05:55:22;27.70;99.90
19888;DHT22;10106;51.332;12.336;2023-07-29T06:00:13;28.40;99.90
19888;DHT22;10106;51.332;12.336;2023-07-29T06:02:39;30.40;99.90
19888;DHT22;10106;51.332;12.336;2023-07-29T06:05:06;30.90;99.70
19888;DHT22;10106;51.332;12.336;2023-07-29T06:07:32;31.20;97.40
19888;DHT22;10106;51.332;12.336;2023-07-29T06:09:59;32.00;94.90
19888;DHT22;10106;51.332;12.336;2023-07-29T06:12:25;32.80;92.10
19888;DHT22;10106;51.332;12.336;2023-07-29T06:14:50;32.90;90.40
19888;DHT22;10106;51.332;12.336;2023-07-29T06:17:16;33.00;90.00
19888;DHT22;10106;51.332;12.336;2023-07-29T06:19:41;32.30;89.50
19888;DHT22;10106;51.332;12.336;2023-07-29T06:22:09;31.80;91.40
19888;DHT22;10106;51.332;12.336;2023-07-29T06:24:35;32.70;90.10
19888;DHT22;10106;51.332;12.336;2023-07-29T06:27:03;33.00;87.00
19888;DHT22;10106;51.332;12.336;2023-07-29T06:29:28;32.40;86.70
19888;DHT22;10106;51.332;12.336;2023-07-29T06:31:54;31.80;88.40
19888;DHT22;10106;51.332;12.336;2023-07-29T06:34:20;31.30;90.50
19888;DHT22;10106;51.332;12.336;2023-07-29T06:36:52;32.10;90.00
19888;DHT22;10106;51.332;12.336;2023-07-29T06:43:19;32.40;86.00
19888;DHT22;10106;51.332;12.336;2023-07-29T06:49:01;33.20;84.20
19888;DHT22;10106;51.332;12.336;2023-07-29T06:51:32;33.20;84.00
19888;DHT22;10106;51.332;12.336;2023-07-29T06:54:10;33.30;81.80
19888;DHT22;10106;51.332;12.336;2023-07-29T06:56:35;32.20;83.30
19888;DHT22;10106;51.332;12.336;2023-07-29T06:59:02;31.40;87.20
19888;DHT22;10106;51.332;12.336;2023-07-29T07:01:28;32.20;86.80
19888;DHT22;10106;51.332;12.336;2023-07-29T07:04:02;33.50;82.50
19888;DHT22;10106;51.332;12.336;2023-07-29T07:06:46;34.20;78.60
19888;DHT22;10106;51.332;12.336;2023-07-29T07:09:11;33.90;77.50
19888;DHT22;10106;51.332;12.336;2023-07-29T07:11:37;33.80;77.90
19888;DHT22;10106;51.332;12.336;2023-07-29T07:14:03;33.00;78.40
19888;DHT22;10106;51.332;12.336;2023-07-29T07:16:31;32.40;81.20
19888;DHT22;10106;51.332;12.336;2023-07-29T07:18:57;32.80;79.50
19888;DHT22;10106;51.332;12.336;2023-07-29T07:21:23;32.00;80.60
19888;DHT22;10106;51.332;12.336;2023-07-29T07:23:51;31.00;82.90
19888;DHT22;10106;51.332;12.336;2023-07-29T07:26:17;30.10;86.90
19888;DHT22;10106;51.332;12.336;2023-07-29T07:28:42;29.50;90.80
19888;DHT22;10106;51.332;12.336;2023-07-29T07:31:08;29.00;93.10
19888;DHT22;10106;51.332;12.336;2023-07-29T07:33:34;28.50;95.20
19888;DHT22;10106;51.332;12.336;2023-07-29T07:35:59;28.00;97.60
19888;DHT22;10106;51.332;12.336;2023-07-29T07:38:25;27.60;99.90
19888;DHT22;10106;51.332;12.336;2023-07-29T07:40:54;27.10;99.90
19888;DHT22;10106;51.332;12.336;2023-07-29T07:43:23;27.30;99.90
19888;DHT22;10106;51.332;12.336;2023-07-29T07:45:49;27.40;99.90
19888;DHT22;10106;51.332;12.336;2023-07-29T07:48:14;27.50;99.90
19888;DHT22;10106;51.332;12.336;2023-07-29T07:50:42;27.40;99.90
19888;DHT22;10106;51.332;12.336;2023-07-29T07:53:07;27.00;99.90
19888;DHT22;10106;51.332;12.336;2023-07-29T07:55:33;27.20;99.90
19888;DHT22;10106;51.332;12.336;2023-07-29T07:57:59;27.00;99.90
19888;DHT22;10106;51.332;12.336;2023-07-29T08:00:27;26.50;99.90
19888;DHT22;10106;51.332;12.336;2023-07-29T08:02:53;26.50;99.90
19888;DHT22;10106;51.332;12.336;2023-07-29T08:05:19;26.60;99.90
19888;DHT22;10106;51.332;12.336;2023-07-29T08:07:44;26.50;99.90
19888;DHT22;10106;51.332;12.336;2023-07-29T08:10:10;26.20;99.90
19888;DHT22;10106;51.332;12.336;2023-07-29T08:12:35;25.90;99.90
19888;DHT22;10106;51.332;12.336;2023-07-29T08:15:01;25.60;99.90
19888;DHT22;10106;51.332;12.336;2023-07-29T08:17:36;25.50;99.90
19888;DHT22;10106;51.332;12.336;2023-07-29T08:20:02;25.50;99.90
19888;DHT22;10106;51.332;12.336;2023-07-29T08:22:27;25.50;99.90
19888;DHT22;10106;51.332;12.336;2023-07-29T08:24:53;25.60;99.90
19888;DHT22;10106;51.332;12.336;2023-07-29T08:27:19;25.50;99.90
19888;DHT22;10106;51.332;12.336;2023-07-29T08:29:44;25.20;99.90
19888;DHT22;10106;51.332;12.336;2023-07-29T08:32:10;25.20;99.90
19888;DHT22;10106;51.332;12.336;2023-07-29T08:34:35;25.30;99.90
19888;DHT22;10106;51.332;12.336;2023-07-29T08:37:01;25.40;99.90
19888;DHT22;10106;51.332;12.336;2023-07-29T08:39:27;25.80;99.90
19888;DHT22;10106;51.332;12.336;2023-07-29T08:44:21;26.50;99.90
19888;DHT22;10106;51.332;12.336;2023-07-29T08:46:53;26.80;99.90
19888;DHT22;10106;51.332;12.336;2023-07-29T08:49:20;27.10;99.90
19888;DHT22;10106;51.332;12.336;2023-07-29T08:51:48;26.90;99.90
19888;DHT22;10106;51.332;12.336;2023-07-29T08:54:14;26.50;99.90
19888;DHT22;10106;51.332;12.336;2023-07-29T08:56:41;26.30;99.90
19888;DHT22;10106;51.332;12.336;2023-07-29T08:59:06;26.20;99.90
19888;DHT22;10106;51.332;12.336;2023-07-29T09:01:32;26.20;99.90
19888;DHT22;10106;51.332;12.336;2023-07-29T09:03:58;27.60;99.90
19888;DHT22;10106;51.332;12.336;2023-07-29T09:06:24;28.50;99.90
19888;DHT22;10106;51.332;12.336;2023-07-29T09:08:51;29.40;99.90
19888;DHT22;10106;51.332;12.336;2023-07-29T09:11:18;29.70;99.90
19888;DHT22;10106;51.332;12.336;2023-07-29T09:13:44;29.60;99.90
19888;DHT22;10106;51.332;12.336;2023-07-29T09:16:10;29.10;99.90
19888;DHT22;10106;51.332;12.336;2023-07-29T09:18:36;28.60;99.90
19888;DHT22;10106;51.332;12.336;2023-07-29T09:21:01;28.10;99.90
19888;DHT22;10106;51.332;12.336;2023-07-29T09:23:27;27.90;99.90
19888;DHT22;10106;51.332;12.336;2023-07-29T09:26:03;27.80;99.90
19888;DHT22;10106;51.332;12.336;2023-07-29T09:28:36;27.90;99.90
19888;DHT22;10106;51.332;12.336;2023-07-29T09:31:02;28.40;99.90
19888;DHT22;10106;51.332;12.336;2023-07-29T09:33:28;28.30;99.90
19888;DHT22;10106;51.332;12.336;2023-07-29T09:35:58;28.00;99.90
19888;DHT22;10106;51.332;12.336;2023-07-29T09:38:27;27.90;99.90
19888;DHT22;10106;51.332;12.336;2023-07-29T09:40:56;27.40;99.90
19888;DHT22;10106;51.332;12.336;2023-07-29T09:43:29;27.10;99.90
19888;DHT22;10106;51.332;12.336;2023-07-29T09:45:55;26.60;99.90
19888;DHT22;10106;51.332;12.336;2023-07-29T09:48:23;26.30;99.90
19888;DHT22;10106;51.332;12.336;2023-07-29T09:50:49;26.10;99.90
19888;DHT22;10106;51.332;12.336;2023-07-29T09:53:15;25.80;99.90
19888;DHT22;10106;51.332;12.336;2023-07-29T09:55:45;25.90;99.90
19888;DHT22;10106;51.332;12.336;2023-07-29T09:58:11;25.80;99.90
19888;DHT22;10106;51.332;12.336;2023-07-29T10:00:37;25.70;99.90
19888;DHT22;10106;51.332;12.336;2023-07-29T10:03:04;25.70;99.90
19888;DHT22;10106;51.332;12.336;2023-07-29T10:05:30;25.80;99.90
19888;DHT22;10106;51.332;12.336;2023-07-29T10:07:55;26.00;99.90
19888;DHT22;10106;51.332;12.336;2023-07-29T10:10:23;26.10;99.90
19888;DHT22;10106;51.332;12.336;2023-07-29T10:12:49;26.20;99.90
19888;DHT22;10106;51.332;12.336;2023-07-29T10:15:15;26.50;99.90
19888;DHT22;10106;51.332;12.336;2023-07-29T10:17:41;26.80;99.90
19888;DHT22;10106;51.332;12.336;2023-07-29T10:20:07;26.60;99.90
19888;DHT22;10106;51.332;12.336;2023-07-29T10:22:38;26.40;99.90
19888;DHT22;10106;51.332;12.336;2023-07-29T10:25:04;26.30;99.90
19888;DHT22;10106;51.332;12.336;2023-07-29T10:27:33;26.20;99.90
19888;DHT22;10106;51.332;12.336;2023-07-29T10:30:07;26.00;99.90
19888;DHT22;10106;51.332;12.336;2023-07-29T10:32:32;26.00;99.90
19888;DHT22;10106;51.332;12.336;2023-07-29T10:34:58;25.80;99.90
19888;DHT22;10106;51.332;12.336;2023-07-29T10:37:25;25.80;99.90
19888;DHT22;10106;51.332;12.336;2023-07-29T10:39:52;25.90;99.90
19888;DHT22;10106;51.332;12.336;2023-07-29T10:42:18;26.00;99.90
19888;DHT22;10106;51.332;12.336;2023-07-29T10:44:47;26.00;99.90
19888;DHT22;10106;51.332;12.336;2023-07-29T10:47:23;26.10;99.90
19888;DHT22;10106;51.332;12.336;2023-07-29T10:49:50;26.20;99.90
19888;DHT22;10106;51.332;12.336;2023-07-29T10:52:27;26.10;99.90
19888;DHT22;10106;51.332;12.336;2023-07-29T10:54:53;26.20;99.90
19888;DHT22;10106;51.332;12.336;2023-07-29T10:57:35;26.50;99.90
19888;DHT22;10106;51.332;12.336;2023-07-29T11:00:00;26.70;99.90
19888;DHT22;10106;51.332;12.336;2023-07-29T11:02:30;26.60;99.90
19888;DHT22;10106;51.332;12.336;2023-07-29T11:04:56;26.70;99.90
19888;DHT22;10106;51.332;12.336;2023-07-29T11:07:23;27.10;99.90
19888;DHT22;10106;51.332;12.336;2023-07-29T11:09:55;27.50;99.90
19888;DHT22;10106;51.332;12.336;2023-07-29T11:12:40;27.50;99.90
19888;DHT22;10106;51.332;12.336;2023-07-29T11:17:38;27.50;99.90
19888;DHT22;10106;51.332;12.336;2023-07-29T11:20:04;27.80;99.90
19888;DHT22;10106;51.332;12.336;2023-07-29T11:22:30;27.80;99.90
19888;DHT22;10106;51.332;12.336;2023-07-29T11:24:56;28.00;99.90
19888;DHT22;10106;51.332;12.336;2023-07-29T11:27:21;27.70;99.90
19888;DHT22;10106;51.332;12.336;2023-07-29T11:29:50;27.40;99.90
19888;DHT22;10106;51.332;12.336;2023-07-29T11:32:16;27.00;99.90
19888;DHT22;10106;51.332;12.336;2023-07-29T11:34:42;26.90;99.90
19888;DHT22;10106;51.332;12.336;2023-07-29T11:37:09;27.00;99.90
19888;DHT22;10106;51.332;12.336;2023-07-29T11:39:39;27.20;99.90
19888;DHT22;10106;51.332;12.336;2023-07-29T11:42:05;27.30;99.90
19888;DHT22;10106;51.332;12.336;2023-07-29T11:44:30;27.40;99.90
19888;DHT22;10106;51.332;12.336;2023-07-29T11:46:59;27.50;99.90
19888;DHT22;10106;51.332;12.336;2023-07-29T11:49:25;27.70;99.90
19888;DHT22;10106;51.332;12.336;2023-07-29T11:51:58;27.60;99.90
19888;DHT22;10106;51.332;12.336;2023-07-29T11:54:24;27.70;99.90
19888;DHT22;10106;51.332;12.336;2023-07-29T11:56:53;27.50;99.90
19888;DHT22;10106;51.332;12.336;2023-07-29T11:59:19;27.70;99.90
19888;DHT22;10106;51.332;12.336;2023-07-29T12:01:45;27.60;99.90
19888;DHT22;10106;51.332;12.336;2023-07-29T12:04:10;27.70;99.90
19888;DHT22;10106;51.332;12.336;2023-07-29T12:06:36;27.60;99.90
19888;DHT22;10106;51.332;12.336;2023-07-29T12:09:08;27.60;99.90
19888;DHT22;10106;51.332;12.336;2023-07-29T12:11:34;27.40;99.90
19888;DHT22;10106;51.332;12.336;2023-07-29T12:14:00;27.20;99.90
19888;DHT22;10106;51.332;12.336;2023-07-29T12:16:25;27.20;99.90
19888;DHT22;10106;51.332;12.336;2023-07-29T12:18:51;27.30;99.90
19888;DHT22;10106;51.332;12.336;2023-07-29T12:21:19;27.10;99.90
19888;DHT22;10106;51.332;12.336;2023-07-29T12:23:44;27.00;99.90
19888;DHT22;10106;51.332;12.336;2023-07-29T12:26:10;26.90;99.90
19888;DHT22;10106;51.332;12.336;2023-07-29T12:28:36;26.90;99.90
19888;DHT22;10106;51.332;12.336;2023-07-29T12:31:01;27.00;99.90
19888;DHT22;10106;51.332;12.336;2023-07-29T12:33:30;27.20;99.90
19888;DHT22;10106;51.332;12.336;2023-07-29T12:35:56;27.50;99.90
19888;DHT22;10106;51.332;12.336;2023-07-29T12:38:22;27.50;99.90
19888;DHT22;10106;51.332;12.336;2023-07-29T12:40:47;27.60;99.90
19888;DHT22;10106;51.332;12.336;2023-07-29T12:43:13;27.80;99.90
19888;DHT22;10106;51.332;12.336;2023-07-29T12:45:39;27.80;99.90
19888;DHT22;10106;51.332;12.336;2023-07-29T12:48:09;27.80;99.90
19888;DHT22;10106;51.332;12.336;2023-07-29T12:50:35;28.00;99.90
19888;DHT22;10106;51.332;12.336;2023-07-29T12:53:01;28.20;99.90
19888;DHT22;10106;51.332;12.336;2023-07-29T12:55:27;28.10;99.90
19888;DHT22;10106;51.332;12.336;2023-07-29T12:57:52;28.30;99.60
19888;DHT22;10106;51.332;12.336;2023-07-29T13:00:18;28.40;98.40
19888;DHT22;10106;51.332;12.336;2023-07-29T13:02:43;28.20;98.90
19888;DHT22;10106;51.332;12.336;2023-07-29T13:05:10;27.80;98.80
19888;DHT22;10106;51.332;12.336;2023-07-29T13:07:39;27.80;99.10
19888;DHT22;10106;51.332;12.336;2023-07-29T13:10:04;28.00;98.90
19888;DHT22;10106;51.332;12.336;2023-07-29T13:12:30;28.20;99.10
19888;DHT22;10106;51.332;12.336;2023-07-29T13:14:56;28.20;99.00
19888;DHT22;10106;51.332;12.336;2023-07-29T13:17:22;28.40;99.10
19888;DHT22;10106;51.332;12.336;2023-07-29T13:19:47;28.60;98.90
19888;DHT22;10106;51.332;12.336;2023-07-29T13:22:13;28.60;98.50
19888;DHT22;10106;51.332;12.336;2023-07-29T13:24:39;28.40;97.70
19888;DHT22;10106;51.332;12.336;2023-07-29T13:27:04;28.10;98.10
19888;DHT22;10106;51.332;12.336;2023-07-29T13:29:30;27.80;98.60
19888;DHT22;10106;51.332;12.336;2023-07-29T13:31:56;27.70;98.50
19888;DHT22;10106;51.332;12.336;2023-07-29T13:34:21;28.10;98.70
19888;DHT22;10106;51.332;12.336;2023-07-29T13:36:47;28.40;98.20
19888;DHT22;10106;51.332;12.336;2023-07-29T13:39:12;28.40;97.50
19888;DHT22;10106;51.332;12.336;2023-07-29T13:41:38;28.30;97.40
19888;DHT22;10106;51.332;12.336;2023-07-29T13:44:04;28.00;96.90
19888;DHT22;10106;51.332;12.336;2023-07-29T13:46:29;27.80;97.50
19888;DHT22;10106;51.332;12.336;2023-07-29T13:48:55;27.90;96.70
19888;DHT22;10106;51.332;12.336;2023-07-29T13:51:20;28.10;96.50
19888;DHT22;10106;51.332;12.336;2023-07-29T13:53:46;28.20;96.10
19888;DHT22;10106;51.332;12.336;2023-07-29T13:56:12;28.00;95.80
19888;DHT22;10106;51.332;12.336;2023-07-29T13:58:37;27.80;95.90
19888;DHT22;10106;51.332;12.336;2023-07-29T14:01:03;27.80;96.20
19888;DHT22;10106;51.332;12.336;2023-07-29T14:03:28;27.50;96.20
19888;DHT22;10106;51.332;12.336;2023-07-29T14:05:54;27.20;96.30
19888;DHT22;10106;51.332;12.336;2023-07-29T14:08:19;27.00;97.20
19888;DHT22;10106;51.332;12.336;2023-07-29T14:10:45;26.90;96.80
19888;DHT22;10106;51.332;12.336;2023-07-29T14:13:11;27.20;97.10
19888;DHT22;10106;51.332;12.336;2023-07-29T14:15:37;27.40;96.70
19888;DHT22;10106;51.332;12.336;2023-07-29T14:18:03;27.60;96.70
19888;DHT22;10106;51.332;12.336;2023-07-29T14:20:28;27.80;96.20
19888;DHT22;10106;51.332;12.336;2023-07-29T14:22:55;27.70;96.20
19888;DHT22;10106;51.332;12.336;2023-07-29T14:25:21;27.60;96.50
19888;DHT22;10106;51.332;12.336;2023-07-29T14:27:46;27.40;96.80
19888;DHT22;10106;51.332;12.336;2023-07-29T14:30:12;27.20;97.70
19888;DHT22;10106;51.332;12.336;2023-07-29T14:32:38;27.10;99.90
19888;DHT22;10106;51.332;12.336;2023-07-29T14:35:03;26.80;99.90
19888;DHT22;10106;51.332;12.336;2023-07-29T14:37:32;26.60;99.90
19888;DHT22;10106;51.332;12.336;2023-07-29T14:39:58;26.30;99.90
19888;DHT22;10106;51.332;12.336;2023-07-29T14:42:23;25.90;99.90
19888;DHT22;10106;51.332;12.336;2023-07-29T14:44:49;25.50;99.90
19888;DHT22;10106;51.332;12.336;2023-07-29T14:47:15;25.10;99.90
19888;DHT22;10106;51.332;12.336;2023-07-29T14:49:40;24.60;99.90
19888;DHT22;10106;51.332;12.336;2023-07-29T14:52:06;24.40;99.90
19888;DHT22;10106;51.332;12.336;2023-07-29T14:54:32;24.30;99.90
19888;DHT22;10106;51.332;12.336;2023-07-29T14:56:57;23.90;99.90
19888;DHT22;10106;51.332;12.336;2023-07-29T14:59:23;23.60;99.90
19888;DHT22;10106;51.332;12.336;2023-07-29T15:01:49;23.40;99.90
19888;DHT22;10106;51.332;12.336;2023-07-29T15:04:14;23.10;99.90
19888;DHT22;10106;51.332;12.336;2023-07-29T15:06:40;22.90;99.90
19888;DHT22;10106;51.332;12.336;2023-07-29T15:09:06;22.60;99.90
19888;DHT22;10106;51.332;12.336;2023-07-29T15:11:32;22.40;99.90
19888;DHT22;10106;51.332;12.336;2023-07-29T15:13:59;22.10;99.90
19888;DHT22;10106;51.332;12.336;2023-07-29T15:16:24;21.80;99.90
19888;DHT22;10106;51.332;12.336;2023-07-29T15:18:50;21.60;99.90
19888;DHT22;10106;51.332;12.336;2023-07-29T15:21:16;21.40;99.90
19888;DHT22;10106;51.332;12.336;2023-07-29T15:23:43;21.20;99.90
19888;DHT22;10106;51.332;12.336;2023-07-29T15:26:08;21.10;99.90
19888;DHT22;10106;51.332;12.336;2023-07-29T15:28:34;20.90;99.90
19888;DHT22;10106;51.332;12.336;2023-07-29T15:31:00;20.80;99.90
19888;DHT22;10106;51.332;12.336;2023-07-29T15:33:26;20.60;99.90
19888;DHT22;10106;51.332;12.336;2023-07-29T15:35:55;20.60;99.90
19888;DHT22;10106;51.332;12.336;2023-07-29T15:38:20;20.60;99.90